Time;durP1;ratioP1;P1;durP2;ratioP2;P2;SDS_P1;SDS_P2;PMS_P1;PMS_P2;Temp;Humidity;BMP_temperature;BMP_pressure;BME280_temperature;BME280_humidity;BME280_pressure;Samples;Min_cycle;Max_cycle;Signal;HPM_P1;HPM_P2
2024/01/26 00:01:13;;;;;;;;;;;6.50;99.90;;;;;;5025631;28;19921;-69
2024/01/26 00:03:41;;;;;;;;;;;6.50;99.90;;;;;;5017437;28;19953;-70
2024/01/26 00:06:07;;;;;;;;;;;6.50;99.90;;;;;;5025041;28;20171;-70
2024/01/26 00:08:34;;;;;;;;;;;6.50;99.90;;;;;;5028079;28;20214;-69
2024/01/26 00:11:01;;;;;;;;;;;6.60;99.90;;;;;;5013149;28;19928;-69
2024/01/26 00:13:27;;;;;;;;;;;6.60;99.90;;;;;;5018035;28;19989;-69
2024/01/26 00:15:54;;;;;;;;;;;6.60;99.90;;;;;;5009728;28;19930;-69
2024/01/26 00:18:21;;;;;;;;;;;6.60;99.90;;;;;;5007508;28;19968;-70
2024/01/26 00:20:49;;;;;;;;;;;6.60;99.90;;;;;;5015133;28;19922;-68
2024/01/26 00:23:15;;;;;;;;;;;6.70;99.90;;;;;;5008469;28;19922;-70
2024/01/26 00:25:42;;;;;;;;;;;6.60;99.90;;;;;;5006989;28;19969;-70
2024/01/26 00:28:08;;;;;;;;;;;6.70;99.90;;;;;;5023182;28;19954;-72
2024/01/26 00:30:35;;;;;;;;;;;6.70;99.90;;;;;;5013702;28;19921;-74
2024/01/26 00:33:02;;;;;;;;;;;6.70;99.90;;;;;;5009382;28;19922;-73
2024/01/26 00:35:29;;;;;;;;;;;6.70;99.90;;;;;;5021132;28;19921;-70
2024/01/26 00:37:57;;;;;;;;;;;6.80;99.90;;;;;;5022323;28;19922;-71
2024/01/26 00:40:23;;;;;;;;;;;6.70;99.90;;;;;;5016670;28;20225;-68
2024/01/26 00:42:50;;;;;;;;;;;6.70;99.90;;;;;;5025368;28;19921;-71
2024/01/26 00:45:17;;;;;;;;;;;6.80;99.90;;;;;;5024279;28;19936;-70
2024/01/26 00:47:44;;;;;;;;;;;6.80;99.90;;;;;;5012131;28;19929;-70
2024/01/26 00:50:11;;;;;;;;;;;6.90;99.90;;;;;;5018415;28;20206;-71
2024/01/26 00:52:37;;;;;;;;;;;6.90;99.90;;;;;;5026391;28;19928;-70
2024/01/26 00:55:05;;;;;;;;;;;6.90;99.90;;;;;;5006501;28;19928;-69
2024/01/26 00:57:32;;;;;;;;;;;6.90;99.90;;;;;;5023063;28;19921;-70
2024/01/26 01:00:00;;;;;;;;;;;6.90;99.90;;;;;;5007172;28;19921;-69
2024/01/26 01:02:26;;;;;;;;;;;6.90;99.90;;;;;;5007595;28;19921;-71
2024/01/26 01:04:53;;;;;;;;;;;6.90;99.90;;;;;;5022815;28;19925;-70
2024/01/26 01:07:20;;;;;;;;;;;6.90;99.90;;;;;;5029265;28;20256;-70
2024/01/26 01:09:46;;;;;;;;;;;6.90;99.90;;;;;;5017058;28;19928;-71
2024/01/26 01:12:14;;;;;;;;;;;7.00;99.90;;;;;;5009075;28;20262;-71
2024/01/26 01:14:41;;;;;;;;;;;7.00;99.90;;;;;;5016193;28;19992;-69
2024/01/26 01:17:09;;;;;;;;;;;6.90;99.90;;;;;;5006210;28;19922;-70
2024/01/26 01:19:35;;;;;;;;;;;6.90;99.90;;;;;;5012617;28;19964;-70
2024/01/26 01:22:03;;;;;;;;;;;6.90;99.90;;;;;;5006153;28;20168;-71
2024/01/26 01:24:29;;;;;;;;;;;7.00;99.90;;;;;;5006320;28;19929;-69
2024/01/26 01:26:56;;;;;;;;;;;7.00;99.90;;;;;;5010138;28;19921;-70
2024/01/26 01:29:24;;;;;;;;;;;7.10;99.90;;;;;;5023046;28;20126;-70
2024/01/26 01:31:50;;;;;;;;;;;7.10;99.90;;;;;;5024017;28;20182;-70
2024/01/26 01:34:17;;;;;;;;;;;7.10;99.90;;;;;;5024060;28;19921;-70
2024/01/26 01:36:43;;;;;;;;;;;7.10;99.90;;;;;;5005716;28;20274;-70
2024/01/26 01:39:10;;;;;;;;;;;7.20;99.90;;;;;;5005807;28;19928;-71
2024/01/26 01:41:37;;;;;;;;;;;7.10;99.90;;;;;;5015978;28;19960;-71
2024/01/26 01:44:03;;;;;;;;;;;7.20;99.90;;;;;;5023021;28;19929;-70
2024/01/26 01:46:31;;;;;;;;;;;7.20;99.90;;;;;;5021342;28;19953;-70
2024/01/26 01:48:58;;;;;;;;;;;7.20;99.90;;;;;;5022244;28;19964;-70
2024/01/26 01:51:26;;;;;;;;;;;7.20;99.90;;;;;;5021386;28;19961;-74
2024/01/26 01:53:52;;;;;;;;;;;7.20;99.90;;;;;;5021945;28;19921;-71
2024/01/26 01:56:21;;;;;;;;;;;7.20;99.90;;;;;;5021214;28;19964;-72
2024/01/26 01:58:48;;;;;;;;;;;7.30;99.90;;;;;;5005808;28;20184;-70
2024/01/26 02:01:15;;;;;;;;;;;7.30;99.90;;;;;;5005722;28;19962;-71
2024/01/26 02:03:43;;;;;;;;;;;7.30;99.90;;;;;;5022719;28;19963;-70
2024/01/26 02:06:09;;;;;;;;;;;7.30;99.90;;;;;;5022109;28;19964;-71
2024/01/26 02:08:36;;;;;;;;;;;7.30;99.90;;;;;;5021114;28;19982;-71
2024/01/26 02:11:03;;;;;;;;;;;7.30;99.90;;;;;;5022024;28;19957;-70
2024/01/26 02:13:30;;;;;;;;;;;7.30;99.90;;;;;;5021262;28;19968;-72
2024/01/26 02:15:56;;;;;;;;;;;7.40;99.90;;;;;;5021999;28;20158;-70
2024/01/26 02:18:23;;;;;;;;;;;7.40;99.90;;;;;;5021011;28;20136;-72
2024/01/26 02:20:51;;;;;;;;;;;7.30;99.90;;;;;;5022001;28;19989;-72
2024/01/26 02:23:23;;;;;;;;;;;7.40;99.90;;;;;;5021665;28;19972;-73
2024/01/26 02:25:49;;;;;;;;;;;7.40;99.90;;;;;;5003678;28;19961;-72
2024/01/26 02:28:16;;;;;;;;;;;7.40;99.90;;;;;;5018509;28;19997;-71
2024/01/26 02:30:42;;;;;;;;;;;7.40;99.90;;;;;;5022276;28;19984;-71
2024/01/26 02:33:09;;;;;;;;;;;7.50;99.90;;;;;;5021609;28;19921;-70
2024/01/26 02:35:36;;;;;;;;;;;7.40;99.90;;;;;;5020684;28;19960;-71
2024/01/26 02:38:02;;;;;;;;;;;7.50;99.90;;;;;;5021882;28;19959;-70
2024/01/26 02:40:30;;;;;;;;;;;7.50;99.90;;;;;;5023664;28;19928;-71
2024/01/26 02:42:57;;;;;;;;;;;7.50;99.90;;;;;;5025946;28;19976;-70
2024/01/26 02:45:25;;;;;;;;;;;7.50;99.90;;;;;;5017883;28;19930;-70
2024/01/26 02:47:51;;;;;;;;;;;7.50;99.90;;;;;;5018699;28;19960;-70
2024/01/26 02:50:18;;;;;;;;;;;7.50;99.90;;;;;;5024762;28;19964;-71
2024/01/26 02:52:45;;;;;;;;;;;7.60;99.90;;;;;;5025295;28;20168;-71
2024/01/26 02:55:11;;;;;;;;;;;7.50;99.90;;;;;;5025969;28;19989;-71
2024/01/26 02:57:39;;;;;;;;;;;7.50;99.90;;;;;;5024333;28;19989;-70
2024/01/26 03:00:07;;;;;;;;;;;7.60;99.90;;;;;;5024662;28;20230;-71
2024/01/26 03:02:33;;;;;;;;;;;7.60;99.90;;;;;;5024952;28;19960;-72
2024/01/26 03:05:00;;;;;;;;;;;7.60;99.90;;;;;;5020362;28;20095;-71
2024/01/26 03:07:27;;;;;;;;;;;7.60;99.90;;;;;;5026009;28;20261;-70
2024/01/26 03:09:53;;;;;;;;;;;7.50;99.90;;;;;;5014518;28;19928;-71
2024/01/26 03:12:20;;;;;;;;;;;7.60;99.90;;;;;;5008905;28;20233;-70
2024/01/26 03:14:48;;;;;;;;;;;7.60;99.90;;;;;;5024375;28;20265;-70
2024/01/26 03:17:15;;;;;;;;;;;7.60;99.90;;;;;;5024407;28;19957;-70
2024/01/26 03:19:41;;;;;;;;;;;7.60;99.90;;;;;;5024219;28;19988;-70
2024/01/26 03:22:08;;;;;;;;;;;7.70;99.90;;;;;;5025293;28;19984;-71
2024/01/26 03:24:34;;;;;;;;;;;7.70;99.90;;;;;;5016465;28;19993;-72
2024/01/26 03:27:01;;;;;;;;;;;7.70;99.90;;;;;;5008259;28;19921;-69
2024/01/26 03:29:27;;;;;;;;;;;7.70;99.90;;;;;;5009838;28;20183;-72
2024/01/26 03:31:56;;;;;;;;;;;7.70;99.90;;;;;;5021453;28;19922;-72
2024/01/26 03:34:22;;;;;;;;;;;7.70;99.90;;;;;;5008507;28;19953;-70
2024/01/26 03:36:49;;;;;;;;;;;7.70;99.90;;;;;;5007960;28;20258;-70
2024/01/26 03:39:15;;;;;;;;;;;7.80;99.90;;;;;;5020892;28;19921;-70
2024/01/26 03:41:42;;;;;;;;;;;7.70;99.90;;;;;;5023746;28;20262;-70
2024/01/26 03:44:09;;;;;;;;;;;7.80;99.90;;;;;;5024400;28;19985;-70
2024/01/26 03:46:40;;;;;;;;;;;7.80;99.90;;;;;;5023222;28;19980;-70
2024/01/26 03:49:09;;;;;;;;;;;7.70;99.90;;;;;;5023864;28;20276;-70
2024/01/26 03:51:36;;;;;;;;;;;7.80;99.90;;;;;;5022914;28;19921;-70
2024/01/26 03:54:03;;;;;;;;;;;7.80;99.90;;;;;;5024191;28;19921;-70
2024/01/26 03:56:29;;;;;;;;;;;7.80;99.90;;;;;;5016301;28;19985;-70
2024/01/26 03:58:56;;;;;;;;;;;7.80;99.90;;;;;;5017898;28;19928;-70
2024/01/26 04:01:23;;;;;;;;;;;7.80;99.90;;;;;;5017466;28;19960;-70
2024/01/26 04:03:49;;;;;;;;;;;7.70;99.90;;;;;;5023854;28;19960;-72
2024/01/26 04:06:18;;;;;;;;;;;7.80;99.90;;;;;;5010936;28;19926;-69
2024/01/26 04:08:45;;;;;;;;;;;7.70;99.90;;;;;;5007526;28;19922;-70
2024/01/26 04:11:11;;;;;;;;;;;7.80;99.90;;;;;;5013284;28;19921;-70
2024/01/26 04:13:38;;;;;;;;;;;7.80;99.90;;;;;;5007449;28;20007;-71
2024/01/26 04:16:07;;;;;;;;;;;7.80;99.90;;;;;;5019734;28;19922;-70
2024/01/26 04:18:33;;;;;;;;;;;7.70;99.90;;;;;;5022562;28;20261;-70
2024/01/26 04:21:00;;;;;;;;;;;7.70;99.90;;;;;;5023793;28;20004;-71
2024/01/26 04:23:28;;;;;;;;;;;7.80;99.90;;;;;;5022912;28;19980;-70
2024/01/26 04:25:54;;;;;;;;;;;7.70;99.90;;;;;;5023322;28;19992;-72
2024/01/26 04:28:21;;;;;;;;;;;7.70;99.90;;;;;;5022321;28;19988;-70
2024/01/26 04:30:49;;;;;;;;;;;7.70;99.90;;;;;;5023130;28;19929;-70
2024/01/26 04:33:15;;;;;;;;;;;7.70;99.90;;;;;;5023085;28;19921;-70
2024/01/26 04:35:42;;;;;;;;;;;7.80;99.90;;;;;;5022844;28;19989;-70
2024/01/26 04:38:08;;;;;;;;;;;7.80;99.90;;;;;;5025079;28;19953;-70
2024/01/26 04:40:38;;;;;;;;;;;7.80;99.90;;;;;;5014862;28;19930;-71
2024/01/26 04:43:05;;;;;;;;;;;7.80;99.90;;;;;;5007087;28;19922;-70
2024/01/26 04:45:31;;;;;;;;;;;7.80;99.90;;;;;;5022935;28;19959;-70
2024/01/26 04:47:58;;;;;;;;;;;7.80;99.90;;;;;;5025038;28;19956;-71
2024/01/26 04:50:25;;;;;;;;;;;7.80;99.90;;;;;;5017327;28;19922;-70
2024/01/26 04:52:52;;;;;;;;;;;7.70;99.90;;;;;;5020286;28;19993;-73
2024/01/26 04:55:19;;;;;;;;;;;7.80;99.90;;;;;;5020373;28;20199;-70
2024/01/26 04:57:47;;;;;;;;;;;7.70;99.90;;;;;;5006938;28;19922;-71
2024/01/26 05:00:14;;;;;;;;;;;7.80;99.90;;;;;;5020939;28;19956;-70
2024/01/26 05:02:41;;;;;;;;;;;7.80;99.90;;;;;;5005773;28;20315;-71
2024/01/26 05:05:08;;;;;;;;;;;7.80;99.90;;;;;;5006196;28;19953;-71
2024/01/26 05:07:34;;;;;;;;;;;7.80;99.90;;;;;;5007285;28;19964;-70
2024/01/26 05:10:01;;;;;;;;;;;7.80;99.90;;;;;;5006363;28;19989;-71
2024/01/26 05:12:28;;;;;;;;;;;7.80;99.90;;;;;;5007038;28;20029;-71
2024/01/26 05:14:56;;;;;;;;;;;7.80;99.90;;;;;;5006022;28;19925;-70
2024/01/26 05:17:22;;;;;;;;;;;7.80;99.90;;;;;;5006864;28;19957;-70
2024/01/26 05:19:49;;;;;;;;;;;7.80;99.90;;;;;;5006283;28;19921;-69
2024/01/26 05:22:17;;;;;;;;;;;7.80;99.90;;;;;;5006338;28;19934;-71
2024/01/26 05:24:44;;;;;;;;;;;7.80;99.90;;;;;;5015240;28;19944;-71
2024/01/26 05:27:11;;;;;;;;;;;7.80;99.90;;;;;;5022713;28;19984;-70
2024/01/26 05:29:38;;;;;;;;;;;7.80;99.90;;;;;;5021687;28;19922;-70
2024/01/26 05:32:07;;;;;;;;;;;7.80;99.90;;;;;;5022410;28;19984;-70
2024/01/26 05:34:33;;;;;;;;;;;7.80;99.90;;;;;;5022046;28;19957;-71
2024/01/26 05:37:00;;;;;;;;;;;7.80;99.90;;;;;;5022510;28;19984;-70
2024/01/26 05:39:28;;;;;;;;;;;7.70;99.90;;;;;;5021195;28;20185;-70
2024/01/26 05:41:54;;;;;;;;;;;7.70;99.90;;;;;;5023693;28;19980;-71
2024/01/26 05:44:21;;;;;;;;;;;7.80;99.90;;;;;;5022014;28;20288;-71
2024/01/26 05:46:47;;;;;;;;;;;7.80;99.90;;;;;;5019490;28;19922;-71
2024/01/26 05:49:15;;;;;;;;;;;7.80;99.90;;;;;;5005658;28;20115;-70
2024/01/26 05:51:42;;;;;;;;;;;7.80;99.90;;;;;;5005486;28;19992;-72
2024/01/26 05:54:09;;;;;;;;;;;7.80;99.90;;;;;;5005491;28;20111;-70
2024/01/26 05:56:39;;;;;;;;;;;7.80;99.90;;;;;;5007929;28;19929;-70
2024/01/26 05:59:06;;;;;;;;;;;7.80;99.90;;;;;;5015777;28;19964;-70
2024/01/26 06:01:32;;;;;;;;;;;7.80;99.90;;;;;;5021125;28;19989;-71
2024/01/26 06:03:59;;;;;;;;;;;7.80;99.90;;;;;;5022178;28;19953;-70
2024/01/26 06:06:27;;;;;;;;;;;7.90;99.90;;;;;;5020645;28;19988;-70
2024/01/26 06:08:54;;;;;;;;;;;7.80;99.90;;;;;;5021964;28;19957;-71
2024/01/26 06:11:21;;;;;;;;;;;7.80;99.90;;;;;;5014057;28;19921;-70
2024/01/26 06:13:48;;;;;;;;;;;7.80;99.90;;;;;;5014299;28;19922;-72
2024/01/26 06:16:14;;;;;;;;;;;7.80;99.90;;;;;;5009259;28;19989;-70
2024/01/26 06:18:43;;;;;;;;;;;7.80;99.90;;;;;;5025946;28;19964;-70
2024/01/26 06:21:10;;;;;;;;;;;7.80;99.90;;;;;;5019853;28;19964;-69
2024/01/26 06:23:38;;;;;;;;;;;7.80;99.90;;;;;;5010027;28;19989;-70
2024/01/26 06:26:05;;;;;;;;;;;7.80;99.90;;;;;;5015025;28;19921;-73
2024/01/26 06:28:31;;;;;;;;;;;7.80;99.90;;;;;;5018184;28;19930;-70
2024/01/26 06:30:58;;;;;;;;;;;7.80;99.90;;;;;;5009006;28;20257;-70
2024/01/26 06:33:24;;;;;;;;;;;7.80;99.90;;;;;;5009969;28;19929;-76
2024/01/26 06:35:51;;;;;;;;;;;7.80;99.90;;;;;;5008789;28;20175;-70
2024/01/26 06:38:18;;;;;;;;;;;7.80;99.90;;;;;;5009160;28;19953;-69
2024/01/26 06:40:46;;;;;;;;;;;7.80;99.90;;;;;;5008809;28;19989;-69
2024/01/26 06:43:16;;;;;;;;;;;7.80;99.90;;;;;;5008493;28;19952;-71
2024/01/26 06:45:43;;;;;;;;;;;7.80;99.90;;;;;;5025298;28;19922;-69
2024/01/26 06:48:09;;;;;;;;;;;7.80;99.90;;;;;;5019430;28;19988;-70
2024/01/26 06:50:36;;;;;;;;;;;7.80;99.90;;;;;;5024550;28;20203;-69
2024/01/26 06:53:02;;;;;;;;;;;7.80;99.90;;;;;;5020330;28;19921;-69
2024/01/26 06:55:29;;;;;;;;;;;7.90;99.90;;;;;;5016473;28;19993;-69
2024/01/26 06:57:57;;;;;;;;;;;7.80;99.90;;;;;;5008699;28;19925;-70
2024/01/26 07:00:24;;;;;;;;;;;7.90;99.90;;;;;;5009222;28;19949;-69
2024/01/26 07:02:50;;;;;;;;;;;7.80;99.90;;;;;;5018798;28;20267;-69
2024/01/26 07:05:17;;;;;;;;;;;7.90;99.90;;;;;;5024105;28;19953;-69
2024/01/26 07:07:43;;;;;;;;;;;7.80;99.90;;;;;;5022386;28;19928;-70
2024/01/26 07:10:11;;;;;;;;;;;7.90;99.90;;;;;;5015852;28;19988;-69
2024/01/26 07:12:37;;;;;;;;;;;7.90;99.90;;;;;;5017627;28;19922;-70
2024/01/26 07:15:06;;;;;;;;;;;7.90;99.90;;;;;;5024713;28;19988;-69
2024/01/26 07:17:33;;;;;;;;;;;7.90;99.90;;;;;;5023625;28;19975;-70
2024/01/26 07:20:00;;;;;;;;;;;7.90;99.90;;;;;;5024439;28;19984;-71
2024/01/26 07:22:26;;;;;;;;;;;7.90;99.90;;;;;;5023365;28;19993;-70
2024/01/26 07:24:53;;;;;;;;;;;7.90;99.90;;;;;;5023459;28;19992;-70
2024/01/26 07:27:20;;;;;;;;;;;7.90;99.90;;;;;;5016186;28;19921;-71
2024/01/26 07:29:47;;;;;;;;;;;8.00;99.90;;;;;;5007848;28;19985;-70
2024/01/26 07:32:15;;;;;;;;;;;8.00;99.90;;;;;;5020413;28;19921;-70
2024/01/26 07:34:42;;;;;;;;;;;8.00;99.90;;;;;;5007297;28;19951;-69
2024/01/26 07:37:08;;;;;;;;;;;8.00;99.90;;;;;;5007263;28;20235;-71
2024/01/26 07:39:35;;;;;;;;;;;8.10;99.90;;;;;;5022021;28;20001;-70
2024/01/26 07:42:01;;;;;;;;;;;8.10;99.90;;;;;;5016429;28;20092;-70
2024/01/26 07:44:28;;;;;;;;;;;8.10;99.90;;;;;;5016516;28;19996;-69
2024/01/26 07:46:55;;;;;;;;;;;8.10;99.90;;;;;;5018675;28;19928;-69
2024/01/26 07:49:23;;;;;;;;;;;8.10;99.90;;;;;;5013236;28;19955;-69
2024/01/26 07:51:49;;;;;;;;;;;8.10;99.90;;;;;;5007235;28;19958;-69
2024/01/26 07:54:16;;;;;;;;;;;8.10;99.90;;;;;;5007127;28;19985;-70
2024/01/26 07:56:42;;;;;;;;;;;8.10;99.90;;;;;;5007153;28;19921;-70
2024/01/26 07:59:09;;;;;;;;;;;8.10;99.90;;;;;;5012795;28;19943;-69
2024/01/26 08:01:36;;;;;;;;;;;8.10;99.90;;;;;;5014466;28;19950;-70
2024/01/26 08:04:03;;;;;;;;;;;8.10;99.90;;;;;;5010998;28;19968;-69
2024/01/26 08:06:31;;;;;;;;;;;8.10;99.90;;;;;;5014394;28;19993;-70
2024/01/26 08:08:58;;;;;;;;;;;8.10;99.90;;;;;;5019951;28;19957;-69
2024/01/26 08:11:24;;;;;;;;;;;8.10;99.90;;;;;;5020052;28;19956;-71
2024/01/26 08:13:51;;;;;;;;;;;8.10;99.90;;;;;;5007307;28;19988;-69
2024/01/26 08:16:18;;;;;;;;;;;8.10;99.90;;;;;;5019088;28;19944;-69
2024/01/26 08:18:44;;;;;;;;;;;8.10;99.90;;;;;;5020865;28;19993;-70
2024/01/26 08:21:11;;;;;;;;;;;8.20;99.90;;;;;;5014978;28;19989;-71
2024/01/26 08:23:39;;;;;;;;;;;8.20;99.90;;;;;;5008608;28;19968;-70
2024/01/26 08:26:06;;;;;;;;;;;8.10;99.90;;;;;;5023043;28;19922;-68
2024/01/26 08:28:32;;;;;;;;;;;8.10;99.90;;;;;;5022441;28;19921;-70
2024/01/26 08:30:59;;;;;;;;;;;8.20;99.90;;;;;;5023069;28;19922;-70
2024/01/26 08:33:26;;;;;;;;;;;8.20;99.90;;;;;;5022367;28;19953;-70
2024/01/26 08:35:53;;;;;;;;;;;8.20;99.90;;;;;;5023041;28;19985;-70
2024/01/26 08:38:19;;;;;;;;;;;8.20;99.90;;;;;;5023025;28;19976;-71
2024/01/26 08:40:47;;;;;;;;;;;8.20;99.90;;;;;;5017058;28;19921;-72
2024/01/26 08:43:14;;;;;;;;;;;8.20;99.90;;;;;;5024567;28;19953;-71
2024/01/26 08:45:40;;;;;;;;;;;8.20;99.90;;;;;;5023811;28;19989;-71
2024/01/26 08:48:07;;;;;;;;;;;8.10;99.90;;;;;;5024448;28;20230;-70
2024/01/26 08:50:35;;;;;;;;;;;8.20;99.90;;;;;;5024307;28;19972;-71
2024/01/26 08:53:02;;;;;;;;;;;8.20;99.90;;;;;;5024362;28;20095;-70
2024/01/26 08:55:28;;;;;;;;;;;8.20;99.90;;;;;;5022336;28;19992;-70
2024/01/26 08:57:56;;;;;;;;;;;8.20;99.90;;;;;;5013589;28;19949;-70
2024/01/26 09:00:23;;;;;;;;;;;8.10;99.90;;;;;;5020160;28;19922;-70
2024/01/26 09:02:49;;;;;;;;;;;8.10;99.90;;;;;;5022665;28;19928;-72
2024/01/26 09:05:16;;;;;;;;;;;8.10;99.90;;;;;;5023377;28;19922;-70
2024/01/26 09:07:43;;;;;;;;;;;8.10;99.90;;;;;;5024156;28;20266;-69
2024/01/26 09:10:10;;;;;;;;;;;8.10;99.90;;;;;;5024156;28;19922;-71
2024/01/26 09:12:37;;;;;;;;;;;8.10;99.90;;;;;;5024102;28;20178;-70
2024/01/26 09:15:05;;;;;;;;;;;8.10;99.90;;;;;;5010693;28;20273;-71
2024/01/26 09:17:32;;;;;;;;;;;8.20;99.90;;;;;;5006933;28;19921;-72
2024/01/26 09:19:58;;;;;;;;;;;8.20;99.90;;;;;;5017563;28;20118;-70
2024/01/26 09:22:27;;;;;;;;;;;8.30;99.90;;;;;;5021481;28;19960;-70
2024/01/26 09:24:54;;;;;;;;;;;8.30;99.90;;;;;;5005701;28;19992;-70
2024/01/26 09:27:21;;;;;;;;;;;8.30;99.90;;;;;;5021393;28;19992;-70
2024/01/26 09:29:48;;;;;;;;;;;8.40;99.90;;;;;;5019156;28;19929;-70
2024/01/26 09:32:16;;;;;;;;;;;8.40;99.90;;;;;;5018873;28;19992;-71
2024/01/26 09:34:44;;;;;;;;;;;8.40;99.90;;;;;;5021518;28;19952;-72
2024/01/26 09:37:10;;;;;;;;;;;8.40;99.90;;;;;;5016881;28;20215;-71
2024/01/26 09:39:37;;;;;;;;;;;8.40;99.90;;;;;;5008678;28;19921;-70
2024/01/26 09:42:05;;;;;;;;;;;8.40;99.90;;;;;;5014698;28;19921;-70
2024/01/26 09:44:32;;;;;;;;;;;8.50;99.90;;;;;;5022686;28;19921;-70
2024/01/26 09:47:00;;;;;;;;;;;8.50;99.90;;;;;;5023871;28;19957;-71
2024/01/26 09:49:29;;;;;;;;;;;8.50;99.90;;;;;;5021982;28;20160;-70
2024/01/26 09:51:56;;;;;;;;;;;8.50;99.90;;;;;;5023560;28;19921;-71
2024/01/26 09:54:23;;;;;;;;;;;8.60;99.90;;;;;;5023499;28;19921;-70
2024/01/26 09:56:51;;;;;;;;;;;8.60;99.90;;;;;;5023535;28;19926;-70
2024/01/26 09:59:18;;;;;;;;;;;8.60;99.90;;;;;;5022864;28;19961;-70
2024/01/26 10:01:46;;;;;;;;;;;8.70;99.90;;;;;;5022854;28;19921;-70
2024/01/26 10:04:13;;;;;;;;;;;8.70;99.90;;;;;;5021937;28;19989;-71
2024/01/26 10:06:41;;;;;;;;;;;8.80;99.90;;;;;;5016085;28;19973;-71
2024/01/26 10:09:10;;;;;;;;;;;8.80;99.90;;;;;;5023093;28;19921;-71
2024/01/26 10:11:36;;;;;;;;;;;8.90;99.90;;;;;;5022457;28;19957;-71
2024/01/26 10:14:03;;;;;;;;;;;8.90;99.90;;;;;;5023237;28;19964;-71
2024/01/26 10:16:29;;;;;;;;;;;9.00;99.90;;;;;;5022069;28;19940;-70
2024/01/26 10:18:56;;;;;;;;;;;9.00;99.90;;;;;;5005465;28;19955;-69
2024/01/26 10:21:23;;;;;;;;;;;9.00;99.90;;;;;;5006032;28;19980;-70
2024/01/26 10:23:51;;;;;;;;;;;9.00;99.90;;;;;;5005129;28;20207;-71
2024/01/26 10:26:17;;;;;;;;;;;9.10;99.90;;;;;;5005626;28;20182;-70
2024/01/26 10:28:46;;;;;;;;;;;9.10;99.90;;;;;;5016036;28;19963;-71
2024/01/26 10:31:12;;;;;;;;;;;9.10;99.90;;;;;;5022831;28;19921;-70
2024/01/26 10:33:42;;;;;;;;;;;9.10;99.90;;;;;;5020681;28;19952;-70
2024/01/26 10:36:10;;;;;;;;;;;9.10;99.90;;;;;;5018270;28;19925;-70
2024/01/26 10:38:38;;;;;;;;;;;9.10;99.90;;;;;;5020654;28;19985;-70
2024/01/26 10:41:06;;;;;;;;;;;9.20;99.90;;;;;;5021223;28;20258;-70
2024/01/26 10:43:32;;;;;;;;;;;9.20;99.90;;;;;;5020367;28;20237;-69
2024/01/26 10:46:02;;;;;;;;;;;9.20;99.90;;;;;;5021555;28;19921;-70
2024/01/26 10:48:28;;;;;;;;;;;9.20;99.90;;;;;;5019780;28;19922;-69
2024/01/26 10:50:55;;;;;;;;;;;9.20;99.90;;;;;;5004923;28;19953;-70
2024/01/26 10:53:22;;;;;;;;;;;9.20;99.90;;;;;;5005704;28;20379;-70
2024/01/26 10:55:50;;;;;;;;;;;9.20;99.90;;;;;;5021120;28;19956;-69
2024/01/26 10:58:18;;;;;;;;;;;9.20;99.90;;;;;;5007690;28;19922;-70
2024/01/26 11:00:44;;;;;;;;;;;9.20;99.90;;;;;;5017459;28;19988;-70
2024/01/26 11:03:11;;;;;;;;;;;9.20;99.90;;;;;;5025899;28;19956;-71
2024/01/26 11:05:39;;;;;;;;;;;9.20;99.90;;;;;;5016834;28;19985;-71
2024/01/26 11:08:09;;;;;;;;;;;9.20;99.90;;;;;;5008613;28;19952;-71
2024/01/26 11:10:36;;;;;;;;;;;9.20;99.90;;;;;;5009399;28;20163;-71
2024/01/26 11:13:03;;;;;;;;;;;9.30;99.90;;;;;;5008117;28;19953;-70
2024/01/26 11:15:31;;;;;;;;;;;9.20;99.90;;;;;;5008817;28;19921;-70
2024/01/26 11:17:58;;;;;;;;;;;9.20;99.90;;;;;;5019613;28;19948;-71
2024/01/26 11:20:26;;;;;;;;;;;9.30;99.90;;;;;;5023463;28;20234;-70
2024/01/26 11:23:00;;;;;;;;;;;9.30;99.90;;;;;;5024766;28;19921;-70
2024/01/26 11:25:26;;;;;;;;;;;9.40;99.90;;;;;;5024414;28;19929;-70
2024/01/26 11:27:59;;;;;;;;;;;9.40;99.90;;;;;;5025975;28;19957;-71
2024/01/26 11:30:27;;;;;;;;;;;9.40;99.90;;;;;;5017983;28;20025;-71
2024/01/26 11:32:55;;;;;;;;;;;9.40;99.90;;;;;;5008139;28;19953;-70
2024/01/26 11:35:21;;;;;;;;;;;9.40;99.90;;;;;;5008840;28;19945;-72
2024/01/26 11:37:48;;;;;;;;;;;9.30;99.90;;;;;;5008134;28;19993;-70
2024/01/26 11:40:15;;;;;;;;;;;9.30;99.90;;;;;;5021715;28;19973;-70
2024/01/26 11:42:42;;;;;;;;;;;9.20;99.90;;;;;;5023312;28;19929;-70
2024/01/26 11:45:11;;;;;;;;;;;9.30;99.90;;;;;;5023854;28;19928;-70
2024/01/26 11:47:38;;;;;;;;;;;9.20;99.90;;;;;;5024922;28;19955;-72
2024/01/26 11:50:07;;;;;;;;;;;9.20;99.90;;;;;;5024329;28;19921;-70
2024/01/26 11:52:34;;;;;;;;;;;9.20;99.90;;;;;;5017009;28;19989;-70
2024/01/26 11:55:01;;;;;;;;;;;9.20;99.90;;;;;;5024252;28;19922;-72
2024/01/26 11:57:28;;;;;;;;;;;9.20;99.90;;;;;;5016572;28;20008;-71
2024/01/26 11:59:54;;;;;;;;;;;9.10;99.90;;;;;;5024169;28;19953;-70
2024/01/26 12:02:21;;;;;;;;;;;9.20;99.90;;;;;;5023462;28;19952;-71
2024/01/26 12:04:48;;;;;;;;;;;9.10;99.90;;;;;;5025200;28;19955;-69
2024/01/26 12:07:16;;;;;;;;;;;9.10;99.90;;;;;;5025686;28;19921;-70
2024/01/26 12:09:43;;;;;;;;;;;9.10;99.90;;;;;;5009069;28;19960;-72
2024/01/26 12:12:10;;;;;;;;;;;9.10;99.90;;;;;;5024766;28;19922;-70
2024/01/26 12:14:38;;;;;;;;;;;9.10;99.90;;;;;;5015157;28;20183;-70
2024/01/26 12:17:04;;;;;;;;;;;9.10;99.90;;;;;;5014354;28;19957;-69
2024/01/26 12:19:30;;;;;;;;;;;9.10;99.90;;;;;;5022444;28;20226;-70
2024/01/26 12:21:57;;;;;;;;;;;9.10;99.90;;;;;;5023852;28;19953;-70
2024/01/26 12:24:25;;;;;;;;;;;9.10;99.90;;;;;;5022372;28;19964;-70
2024/01/26 12:26:52;;;;;;;;;;;9.10;99.90;;;;;;5024703;28;19921;-71
2024/01/26 12:29:20;;;;;;;;;;;9.10;99.90;;;;;;5022802;28;19944;-72
2024/01/26 12:31:46;;;;;;;;;;;9.10;99.90;;;;;;5007025;28;19953;-73
2024/01/26 12:34:13;;;;;;;;;;;9.10;99.90;;;;;;5006830;28;19921;-70
2024/01/26 12:36:41;;;;;;;;;;;9.10;99.90;;;;;;5022351;28;19953;-70
2024/01/26 12:39:07;;;;;;;;;;;9.10;99.90;;;;;;5023159;28;19968;-70
2024/01/26 12:41:35;;;;;;;;;;;9.10;99.90;;;;;;5007406;28;19922;-70
2024/01/26 12:44:03;;;;;;;;;;;9.10;99.90;;;;;;5011275;28;20215;-70
2024/01/26 12:46:29;;;;;;;;;;;9.10;99.90;;;;;;5021793;28;20253;-72
2024/01/26 12:48:56;;;;;;;;;;;9.00;99.90;;;;;;5024983;28;19996;-71
2024/01/26 12:51:23;;;;;;;;;;;9.10;99.90;;;;;;5024415;28;19928;-72
2024/01/26 12:53:50;;;;;;;;;;;9.00;99.90;;;;;;5019929;28;19980;-70
2024/01/26 12:56:17;;;;;;;;;;;9.00;99.90;;;;;;5011967;28;20180;-69
2024/01/26 12:58:45;;;;;;;;;;;9.00;99.90;;;;;;5016004;28;19927;-69
2024/01/26 13:01:11;;;;;;;;;;;9.00;99.90;;;;;;5023962;28;19922;-71
2024/01/26 13:03:38;;;;;;;;;;;9.00;99.90;;;;;;5021882;28;19985;-72
2024/01/26 13:06:05;;;;;;;;;;;9.00;99.90;;;;;;5006234;28;19984;-70
2024/01/26 13:08:31;;;;;;;;;;;9.00;99.90;;;;;;5007097;28;19921;-70
2024/01/26 13:10:58;;;;;;;;;;;9.00;99.90;;;;;;5006213;28;19926;-70
2024/01/26 13:13:27;;;;;;;;;;;9.10;99.90;;;;;;5007253;28;19928;-70
2024/01/26 13:15:55;;;;;;;;;;;9.10;99.90;;;;;;5023250;28;19957;-71
2024/01/26 13:18:22;;;;;;;;;;;9.10;99.90;;;;;;5021403;28;19956;-69
2024/01/26 13:20:48;;;;;;;;;;;9.10;99.90;;;;;;5022471;28;19921;-71
2024/01/26 13:23:15;;;;;;;;;;;9.10;99.90;;;;;;5018309;28;20178;-69
2024/01/26 13:25:42;;;;;;;;;;;9.10;99.90;;;;;;5022917;28;19929;-73
2024/01/26 13:28:08;;;;;;;;;;;9.10;99.90;;;;;;5014320;28;21704;-70
2024/01/26 13:30:36;;;;;;;;;;;9.10;99.90;;;;;;5015813;28;19929;-70
2024/01/26 13:33:06;;;;;;;;;;;9.10;99.90;;;;;;5013322;28;19922;-71
2024/01/26 13:35:32;;;;;;;;;;;9.20;99.90;;;;;;5011891;28;20237;-69
2024/01/26 13:37:59;;;;;;;;;;;9.20;99.90;;;;;;5014443;28;19993;-70
2024/01/26 13:40:26;;;;;;;;;;;9.20;99.90;;;;;;5016123;28;19941;-71
2024/01/26 13:42:52;;;;;;;;;;;9.20;99.90;;;;;;5005677;28;19946;-69
2024/01/26 13:45:19;;;;;;;;;;;9.20;99.90;;;;;;5010560;28;20126;-69
2024/01/26 13:47:46;;;;;;;;;;;9.10;99.90;;;;;;5012183;28;19956;-69
2024/01/26 13:50:14;;;;;;;;;;;9.10;99.90;;;;;;5012174;28;19922;-71
2024/01/26 13:52:40;;;;;;;;;;;9.10;99.90;;;;;;5008600;28;19929;-69
2024/01/26 13:55:07;;;;;;;;;;;9.20;99.90;;;;;;5011581;28;19992;-69
2024/01/26 13:57:34;;;;;;;;;;;9.10;99.90;;;;;;5008973;28;20165;-70
2024/01/26 14:00:01;;;;;;;;;;;9.20;99.90;;;;;;5012433;28;19922;-69
2024/01/26 14:02:28;;;;;;;;;;;9.20;99.90;;;;;;5011632;28;19984;-69
2024/01/26 14:04:54;;;;;;;;;;;9.20;99.90;;;;;;5010456;28;19924;-70
2024/01/26 14:07:22;;;;;;;;;;;9.20;99.90;;;;;;5011654;28;19988;-70
2024/01/26 14:09:49;;;;;;;;;;;9.20;99.90;;;;;;5008947;28;19967;-69
2024/01/26 14:12:16;;;;;;;;;;;9.20;99.90;;;;;;5011022;28;19930;-69
2024/01/26 14:14:42;;;;;;;;;;;9.20;99.90;;;;;;5010833;28;19928;-70
2024/01/26 14:17:09;;;;;;;;;;;9.20;99.90;;;;;;5016014;28;19993;-69
2024/01/26 14:19:36;;;;;;;;;;;9.20;99.90;;;;;;5012207;28;19936;-71
2024/01/26 14:22:03;;;;;;;;;;;9.10;99.90;;;;;;5009552;28;19985;-69
2024/01/26 14:24:31;;;;;;;;;;;9.20;99.90;;;;;;5015050;28;20142;-69
2024/01/26 14:26:58;;;;;;;;;;;9.20;99.90;;;;;;5022382;28;20151;-72
2024/01/26 14:29:24;;;;;;;;;;;9.20;99.90;;;;;;5020097;28;19922;-70